Date,TemperatureHighF,TemperatureAvgF,TemperatureLowF,DewpointHighF,DewpointAvgF,DewpointLowF,HumidityHigh,HumidityAvg,HumidityLow,PressureMaxIn,PressureMinIn,WindSpeedMaxMPH,WindSpeedAvgMPH,GustSpeedMaxMPH,PrecipitationSumIn
2013-3-11,79,69,51,48,44,38,81,45,24,30.17,30.03,2,0,0,0.00
2013-3-12,85,62,46,55,48,42,91,64,29,30.08,29.98,3,0,0,0.00
2013-3-13,88,66,49,58,52,45,90,65,34,30.09,30.00,3,1,0,0.00
2013-3-14,86,66,50,59,52,45,98,67,30,30.08,29.98,4,0,0,0.00
2013-3-15,79,63,53,58,54,51,95,76,45,30.03,29.92,3,0,0,0.00
2013-3-16,72,60,53,54,52,50,93,78,50,29.97,29.87,3,0,0,0.00
2013-3-17,74,61,54,54,52,51,89,75,49,29.99,29.91,4,1,0,0.00
2013-3-18,68,58,52,54,52,50,90,80,59,30.08,29.98,3,0,0,0.00
2013-3-19,73,58,47,55,51,46,96,80,52,30.11,30.03,2,0,0,0.00
2013-3-20,75,61,50,57,53,49,95,77,50,30.09,29.95,3,0,0,0.00
2013-3-21,76,61,50,56,52,49,94,75,50,29.94,29.80,5,1,0,0.00
2013-3-22,74,60,52,55,52,48,95,76,49,29.91,29.80,5,0,0,0.00
2013-3-23,77,60,46,55,51,44,95,74,46,30.00,29.90,6,1,0,0.00
2013-3-24,79,63,50,56,53,49,96,73,37,30.01,29.87,4,0,0,0.00
2013-3-25,79,62,48,57,52,46,95,72,42,29.97,29.87,5,0,0,0.00
2013-3-26,75,62,53,55,53,50,93,74,45,29.96,29.88,5,1,0,0.00
2013-3-27,73,62,54,55,53,50,90,73,46,30.04,29.92,4,1,0,0.00
2013-3-28,79,64,54,57,54,51,92,72,40,30.06,29.98,5,1,0,0.00
2013-3-29,78,63,54,59,55,52,94,78,51,30.10,30.02,5,1,0,0.00
2013-3-30,77,64,56,58,54,50,92,73,47,30.11,30.03,5,1,0,0.00
2013-3-31,72,62,54,57,54,52,93,77,59,30.11,30.04,4,1,0,0.00